KTBR/TBR METAR and TAF weather

Enter ICAO airport designator
Station Type Date Time Source
KTBR METAR 2022/06/26 07:55 UTC NOAA

KTBR 260755Z AUTO 00000KT 10SM CLR 20/19 A3010 RMK AO2 T02040189


Station Type Date Time Source
KTBR Decoded METAR 2022/06/26 07:55 UTC NOAA

Statesboro, Statesboro-Bulloch County Airport, GA, United States (KTBR) 32-28-59N 081-44-14W
Jun 26, 2022 - 03:55 AM EDT / 2022.06.26 0755 UTC
Wind: Calm:0
Visibility: 10 mile(s):0
Sky conditions: clear
Temperature: 68.7 F (20.4 C)
Dew Point: 66.0 F (18.9 C)
Relative Humidity: 91%
Pressure (altimeter): 30.1 in. Hg (1019 hPa)
ob: KTBR 260755Z AUTO 00000KT 10SM CLR 20/19 A3010 RMK AO2 T02040189
cycle: 8

Station Type Date Time Source
KTBR TAF UTC NOAA

Error!

Example: see airport list